CDT,Max TemperatureF,Mean TemperatureF,Min TemperatureF,Max Dew PointF,MeanDew PointF,Min DewpointF,Max Humidity, Mean Humidity, Min Humidity, Max Sea Level PressureIn, Mean Sea Level PressureIn, Min Sea Level PressureIn, Max VisibilityMiles, Mean VisibilityMiles, Min VisibilityMiles, Max Wind SpeedMPH, Mean Wind SpeedMPH, Max Gust SpeedMPH,PrecipitationIn, CloudCover, Events, WindDirDegrees
2013-4-1,35,30,26,18,14,10,60,49,38,30.19,30.09,29.92,10,10,10,18,11,24,0.00,1,,304
2013-4-2,41,32,24,18,14,9,74,49,29,30.30,30.23,30.18,10,10,7,18,9,24,0.00,1,,296
2013-4-3,42,34,26,21,15,10,64,45,27,30.42,30.34,30.26,10,10,10,10,6,16,0.00,0,,141
2013-4-4,57,44,30,34,26,19,70,53,35,30.26,30.08,29.96,10,10,10,24,12,32,0.00,0,,237
2013-4-5,50,41,32,28,24,18,80,54,30,30.22,30.13,30.05,10,10,10,16,8,23,0.00,2,,45
2013-4-6,66,50,33,52,34,21,100,61,32,30.08,29.77,29.56,10,10,7,28,15,38,0.04,6,Rain-Thunderstorm,165
2013-4-7,57,47,37,46,36,32,93,68,41,29.94,29.85,29.62,10,10,10,23,12,29,0.00,3,,267
2013-4-8,64,50,37,52,44,36,100,83,49,29.95,29.77,29.58,10,8,1,17,10,25,0.57,4,Rain,23
2013-4-9,44,40,37,45,41,37,100,100,100,29.96,29.91,29.83,10,5,0,28,14,36,1.45,8,Fog-Rain-Thunderstorm,48
2013-4-10,37,34,32,37,36,32,100,100,100,30.03,29.91,29.84,10,8,2,26,18,39,0.95,8,Rain-Snow-Thunderstorm,40
2013-4-11,41,38,35,41,37,36,100,100,100,29.84,29.64,29.54,10,4,1,28,17,43,0.05,8,Rain,64
2013-4-12,41,37,33,37,33,28,100,90,70,29.81,29.64,29.52,10,8,2,22,15,28,0.00,8,,255
2013-4-13,41,36,32,32,28,25,100,77,57,29.97,29.88,29.80,10,10,7,24,15,29,0.00,7,Snow,264
2013-4-14,60,46,32,48,36,27,100,78,51,29.97,29.78,29.53,10,10,3,23,11,31,0.05,5,Rain-Snow,83
2013-4-15,60,50,39,54,43,34,100,85,36,29.98,29.80,29.60,10,8,0,26,13,34,0.58,7,Fog-Rain-Thunderstorm,231
2013-4-16,55,44,33,41,32,28,100,67,36,30.26,30.12,29.96,10,10,10,12,8,18,0.00,2,,331
2013-4-17,42,40,37,43,37,30,100,90,65,30.28,30.09,29.80,10,7,1,25,11,33,0.97,8,Rain-Thunderstorm,66
2013-4-18,60,48,33,61,49,34,100,99,93,29.83,29.53,29.35,10,4,0,34,12,46,0.86,8,Fog-Rain-Snow,132
2013-4-19,37,34,32,34,29,21,93,79,56,29.92,29.59,29.41,10,10,3,33,25,44,0.00,8,Snow,265
2013-4-20,44,36,28,23,18,12,75,50,31,30.35,30.19,29.93,10,10,10,14,7,18,0.00,2,,285
2013-4-21,53,42,32,34,28,21,70,56,43,30.46,30.34,30.24,10,10,10,24,14,30,0.00,4,,146
2013-4-22,68,54,41,39,35,32,70,51,28,30.25,30.13,30.00,10,10,10,20,14,25,0.00,4,,168
2013-4-23,55,44,33,50,38,28,100,87,58,30.00,29.96,29.91,10,9,3,16,10,22,0.18,8,Rain-Snow,313
2013-4-24,51,42,33,30,25,19,75,53,30,30.03,30.01,29.96,10,10,10,17,9,28,0.00,1,,281
2013-4-25,50,42,35,39,30,23,100,65,35,30.28,30.16,29.99,10,10,10,23,15,31,0.00,4,Rain,249
2013-4-26,68,52,37,43,36,23,71,52,35,30.27,30.22,30.16,10,10,10,29,16,38,0.00,2,,186
2013-4-27,64,54,44,50,44,41,100,66,45,30.24,30.14,30.00,10,10,4,14,9,17,0.00,4,,179
2013-4-28,69,58,46,46,43,37,87,61,43,29.99,29.88,29.80,10,10,10,10,5,,0.00,4,,96
2013-4-29,71,60,50,61,52,46,100,75,49,29.87,29.79,29.71,10,10,5,18,11,24,0.10,1,Rain-Thunderstorm,178
2013-4-30,86,73,60,63,52,41,100,59,20,29.90,29.76,29.70,10,10,10,32,19,40,0.00,0,Thunderstorm,190